Krisjanis Valdemars — V7LI9 — position and weather

sailwx.info

Track history (hours):
 
Tides and Currents Weather Stations Pressure Air Temp Water Temp Dewpoint Dewpoint Depression Visibility Wind Speed Wind Dir Waves Ship Positions

Krisjanis Valdemars

Last reported at 2015-Jul-02 11:33 UTC. Time now 2015-Jul-02 12:29 UTC.
Position N 54°29' E 011°39'.

Length 183 m; draft 10.5 m.

Type: Tanker. MMSI: 538002757.

Date/timePositionNaut miles runAvg speedWind from/ knotsBaromVisibWave heightAir tempDewpointWater temp
2015-Jul-02 11:33N 54°29' E 011°39'1313.2
2015-Jul-02 10:33N 54°27' E 012°02'1111.2
2015-Jul-02 09:33N 54°34' E 012°15'9 9.5
2015-Jul-02 08:33N 54°41' E 012°28'1312.9
2015-Jul-02 07:33N 54°47' E 012°47'1313.0
2015-Jul-02 06:33N 54°52' E 013°08'1313.1
2015-Jul-02 05:33N 54°57' E 013°29'1313.2
2015-Jul-02 04:33N 55°01' E 013°51'1312.9
2015-Jul-02 03:33N 55°08' E 014°10'1313.3
2015-Jul-02 02:33N 55°18' E 014°25'1313.1
2015-Jul-02 01:33N 55°28' E 014°41'1313.2
2015-Jul-02 00:33N 55°34' E 015°01'1313.3
2015-Jul-01 23:33N 55°39' E 015°23'1313.0
2015-Jul-01 22:33N 55°42' E 015°45'1413.2
2015-Jul-01 21:32N 55°45' E 016°09'1313.2
2015-Jul-01 20:33N 55°49' E 016°31'1313.3
2015-Jul-01 19:33N 55°52' E 016°54'1313.2
2015-Jul-01 18:33N 55°55' E 017°17'1313.1
2015-Jul-01 17:33N 55°59' E 017°39'1313.3
2015-Jul-01 16:33N 56°06' E 017°59'1313.3
2015-Jul-01 15:33N 56°13' E 018°20'1313.2
2015-Jul-01 14:33N 56°21' E 018°39'1313.0
2015-Jul-01 13:33N 56°31' E 018°54'1313.3
2015-Jul-01 12:33N 56°42' E 019°06'18713.2
2015-Jun-30 22:19N 59°22' E 022°10'1513.3
2015-Jun-30 21:13N 59°31' E 022°33'2213.2
2015-Jun-30 19:32N 59°37' E 023°15'1313.2
2015-Jun-30 18:33N 59°40' E 023°40'1313.2
2015-Jun-30 17:32N 59°44' E 024°06'1711.6
2015-Jun-30 16:05N 59°42' E 024°39'713.0
2015-Jun-30 15:33N 59°38' E 024°49'9 0.2
2015-Jun-29 04:17N 59°31' E 024°58'710.0
2015-Jun-29 03:33N 59°37' E 024°50'1413.7
2015-Jun-29 02:34N 59°40' E 024°24'1313.5
2015-Jun-29 01:34N 59°39' E 023°57'1414.3
2015-Jun-29 00:33N 59°34' E 023°31'1414.1
2015-Jun-28 23:34N 59°30' E 023°04'1414.0
2015-Jun-28 22:33N 59°25' E 022°38'1414.1
2015-Jun-28 21:33N 59°17' E 022°16'1414.3
2015-Jun-28 20:33N 59°08' E 021°54'1414.2
2015-Jun-28 19:32N 58°57' E 021°36'18614.0
2015-Jun-28 06:17N 56°16' E 018°42'10813.8
2015-Jun-27 22:27N 55°39' E 015°40'1213.9
2015-Jun-27 21:33N 55°35' E 015°20'1414.2
2015-Jun-27 20:33N 55°29' E 014°57'1414.1
2015-Jun-27 19:33N 55°22' E 014°36'1414.3
2015-Jun-27 18:34N 55°11' E 014°20'3313.7
2015-Jun-27 16:09N 55°12' E 013°22'814.1
2015-Jun-27 15:34N 55°13' E 013°07'1413.9
2015-Jun-27 14:33N 55°17' E 012°44'1111.5
2015-Jun-27 13:33N 55°28' E 012°41'1010.0
2015-Jun-27 12:33N 55°38' E 012°42'1212.3
2015-Jun-27 11:33N 55°50' E 012°41'1212.4
2015-Jun-27 10:33N 56°03' E 012°38'1110.6
2015-Jun-27 09:33N 56°10' E 012°24'1010.5
2015-Jun-27 08:33N 56°16' E 012°09'1313.3
2015-Jun-27 07:33N 56°28' E 011°59'1413.8
2015-Jun-27 06:33N 56°41' E 011°54'1514.2
2015-Jun-27 05:32N 56°55' E 011°45'1414.0
2015-Jun-27 04:34N 57°08' E 011°36'1414.0
2015-Jun-27 03:33N 57°21' E 011°27'1413.5
2015-Jun-27 02:33N 57°33' E 011°14'1414.0
2015-Jun-27 01:33N 57°42' E 010°55'1613.2
2015-Jun-27 00:19N 57°48' E 010°26'2614.3
2015-Jun-26 22:30N 57°36' E 009°43'23813.9
2015-Jun-26 05:21N 54°27' E 005°24'1114.2
2015-Jun-26 04:33N 54°18' E 005°11'1514.4
2015-Jun-26 03:30N 54°10' E 004°50'1213.2
2015-Jun-26 02:34N 53°59' E 004°39'2914.3
2015-Jun-26 00:33N 53°39' E 004°05'1514.7
2015-Jun-25 23:33N 53°30' E 003°45'1615.4
2015-Jun-25 22:32N 53°15' E 003°34'1515.5
2015-Jun-25 21:33N 53°01' E 003°24'1715.4
2015-Jun-25 20:28N 52°46' E 003°13'3014.9
2015-Jun-25 18:27N 52°20' E 002°50'1313.2
2015-Jun-25 17:27N 52°08' E 002°59'1213.4
2015-Jun-25 16:33N 52°03' E 003°17'1414.3
2015-Jun-25 15:33N 52°03' E 003°41'1211.9
2015-Jun-25 14:34N 52°01' E 003°60'1211.9
2015-Jun-25 13:33N 51°54' E 004°16'4 3.8
2015-Jun-25 12:31N 51°54' E 004°22'0 0.0
2015-Jun-25 11:22N 51°54' E 004°22'0 0.0
2015-Jun-25 10:28N 51°54' E 004°22'0 0.0
2015-Jun-25 08:28N 51°54' E 004°22'0 0.0
2015-Jun-25 07:28N 51°54' E 004°22'0 0.0
2015-Jun-25 06:28N 51°54' E 004°22'0 0.0
2015-Jun-25 05:31N 51°54' E 004°22'0 0.0
2015-Jun-25 04:31N 51°54' E 004°22'0 0.0
2015-Jun-25 03:31N 51°54' E 004°22'0 0.0
2015-Jun-25 02:31N 51°54' E 004°22'0 0.0
2015-Jun-25 01:25N 51°54' E 004°22'0 0.0
2015-Jun-25 00:31N 51°54' E 004°22'0 0.0
2015-Jun-24 23:31N 51°54' E 004°22'0 0.0
2015-Jun-24 22:22N 51°54' E 004°22'0 0.0
2015-Jun-24 21:28N 51°54' E 004°22'0 0.0
2015-Jun-24 20:31N 51°54' E 004°22'0 0.0
2015-Jun-24 19:28N 51°54' E 004°22'0 0.0
2015-Jun-24 18:28N 51°54' E 004°22'0 0.0
2015-Jun-24 17:28N 51°54' E 004°22'0 0.0
2015-Jun-24 16:22N 51°54' E 004°22'0 0.0
2015-Jun-24 15:31N 51°54' E 004°22'0 0.0
2015-Jun-24 14:31N 51°54' E 004°22'0 0.0
2015-Jun-24 13:31N 51°54' E 004°22'0 0.0
2015-Jun-24 12:07N 51°54' E 004°22'0 0.0
2015-Jun-24 11:22N 51°54' E 004°22'0 0.0
2015-Jun-24 10:28N 51°54' E 004°22'0 0.0
2015-Jun-24 09:31N 51°54' E 004°22'0 0.0
2015-Jun-24 08:31N 51°54' E 004°22'0 0.0
2015-Jun-24 07:28N 51°54' E 004°22'0 0.0
2015-Jun-24 06:28N 51°54' E 004°22'0 0.0
2015-Jun-24 05:31N 51°54' E 004°22'0 0.0
2015-Jun-24 04:31N 51°54' E 004°22'0 0.0
2015-Jun-24 03:31N 51°54' E 004°22'0 0.0
2015-Jun-24 02:31N 51°54' E 004°22'0 0.0
2015-Jun-24 01:31N 51°54' E 004°22'0 0.0
2015-Jun-24 00:31N 51°54' E 004°22'0 0.0
2015-Jun-23 23:19N 51°54' E 004°22'0 0.0
2015-Jun-23 22:28N 51°54' E 004°22'0 0.0
2015-Jun-23 21:31N 51°54' E 004°22'0 0.0
2015-Jun-23 20:28N 51°54' E 004°22'0 0.0
2015-Jun-23 19:31N 51°54' E 004°22'0 0.0
2015-Jun-23 19:04N 51°54' E 004°22'  
Track history (hours):
 
Tides and Currents Weather Stations Pressure Air Temp Water Temp Dewpoint Dewpoint Depression Visibility Wind Speed Wind Dir Waves Ship Positions

Krisjanis Valdemars

Last reported at 2015-Jul-02 11:33 UTC. Time now 2015-Jul-02 12:29 UTC.
Position N 54°29' E 011°39'.

Length 183 m; draft 10.5 m.

Type: Tanker. MMSI: 538002757.

Date/timePositionNaut miles runAvg speedWind from/ knotsBaromVisibWave heightAir tempDewpointWater temp
2015-Jul-02 11:33N 54°29' E 011°39'1313.2
2015-Jul-02 10:33N 54°27' E 012°02'1111.2
2015-Jul-02 09:33N 54°34' E 012°15'9 9.5
2015-Jul-02 08:33N 54°41' E 012°28'1312.9
2015-Jul-02 07:33N 54°47' E 012°47'1313.0
2015-Jul-02 06:33N 54°52' E 013°08'1313.1
2015-Jul-02 05:33N 54°57' E 013°29'1313.2
2015-Jul-02 04:33N 55°01' E 013°51'1312.9
2015-Jul-02 03:33N 55°08' E 014°10'1313.3
2015-Jul-02 02:33N 55°18' E 014°25'1313.1
2015-Jul-02 01:33N 55°28' E 014°41'1313.2
2015-Jul-02 00:33N 55°34' E 015°01'1313.3
2015-Jul-01 23:33N 55°39' E 015°23'1313.0
2015-Jul-01 22:33N 55°42' E 015°45'1413.2
2015-Jul-01 21:32N 55°45' E 016°09'1313.2
2015-Jul-01 20:33N 55°49' E 016°31'1313.3
2015-Jul-01 19:33N 55°52' E 016°54'1313.2
2015-Jul-01 18:33N 55°55' E 017°17'1313.1
2015-Jul-01 17:33N 55°59' E 017°39'1313.3
2015-Jul-01 16:33N 56°06' E 017°59'1313.3
2015-Jul-01 15:33N 56°13' E 018°20'1313.2
2015-Jul-01 14:33N 56°21' E 018°39'1313.0
2015-Jul-01 13:33N 56°31' E 018°54'1313.3
2015-Jul-01 12:33N 56°42' E 019°06'18713.2
2015-Jun-30 22:19N 59°22' E 022°10'1513.3
2015-Jun-30 21:13N 59°31' E 022°33'2213.2
2015-Jun-30 19:32N 59°37' E 023°15'1313.2
2015-Jun-30 18:33N 59°40' E 023°40'1313.2
2015-Jun-30 17:32N 59°44' E 024°06'1711.6
2015-Jun-30 16:05N 59°42' E 024°39'713.0
2015-Jun-30 15:33N 59°38' E 024°49'9 0.2
2015-Jun-29 04:17N 59°31' E 024°58'710.0
2015-Jun-29 03:33N 59°37' E 024°50'1413.7
2015-Jun-29 02:34N 59°40' E 024°24'1313.5
2015-Jun-29 01:34N 59°39' E 023°57'1414.3
2015-Jun-29 00:33N 59°34' E 023°31'1414.1
2015-Jun-28 23:34N 59°30' E 023°04'1414.0
2015-Jun-28 22:33N 59°25' E 022°38'1414.1
2015-Jun-28 21:33N 59°17' E 022°16'1414.3
2015-Jun-28 20:33N 59°08' E 021°54'1414.2
2015-Jun-28 19:32N 58°57' E 021°36'18614.0
2015-Jun-28 06:17N 56°16' E 018°42'10813.8
2015-Jun-27 22:27N 55°39' E 015°40'1213.9
2015-Jun-27 21:33N 55°35' E 015°20'1414.2
2015-Jun-27 20:33N 55°29' E 014°57'1414.1
2015-Jun-27 19:33N 55°22' E 014°36'1414.3
2015-Jun-27 18:34N 55°11' E 014°20'3313.7
2015-Jun-27 16:09N 55°12' E 013°22'814.1
2015-Jun-27 15:34N 55°13' E 013°07'1413.9
2015-Jun-27 14:33N 55°17' E 012°44'1111.5
2015-Jun-27 13:33N 55°28' E 012°41'1010.0
2015-Jun-27 12:33N 55°38' E 012°42'1212.3
2015-Jun-27 11:33N 55°50' E 012°41'1212.4
2015-Jun-27 10:33N 56°03' E 012°38'1110.6
2015-Jun-27 09:33N 56°10' E 012°24'1010.5
2015-Jun-27 08:33N 56°16' E 012°09'1313.3
2015-Jun-27 07:33N 56°28' E 011°59'1413.8
2015-Jun-27 06:33N 56°41' E 011°54'1514.2
2015-Jun-27 05:32N 56°55' E 011°45'1414.0
2015-Jun-27 04:34N 57°08' E 011°36'1414.0
2015-Jun-27 03:33N 57°21' E 011°27'1413.5
2015-Jun-27 02:33N 57°33' E 011°14'1414.0
2015-Jun-27 01:33N 57°42' E 010°55'1613.2
2015-Jun-27 00:19N 57°48' E 010°26'2614.3
2015-Jun-26 22:30N 57°36' E 009°43'23813.9
2015-Jun-26 05:21N 54°27' E 005°24'1114.2
2015-Jun-26 04:33N 54°18' E 005°11'1514.4
2015-Jun-26 03:30N 54°10' E 004°50'1213.2
2015-Jun-26 02:34N 53°59' E 004°39'2914.3
2015-Jun-26 00:33N 53°39' E 004°05'1514.7
2015-Jun-25 23:33N 53°30' E 003°45'1615.4
2015-Jun-25 22:32N 53°15' E 003°34'1515.5
2015-Jun-25 21:33N 53°01' E 003°24'1715.4
2015-Jun-25 20:28N 52°46' E 003°13'3014.9
2015-Jun-25 18:27N 52°20' E 002°50'1313.2
2015-Jun-25 17:27N 52°08' E 002°59'1213.4
2015-Jun-25 16:33N 52°03' E 003°17'1414.3
2015-Jun-25 15:33N 52°03' E 003°41'1211.9
2015-Jun-25 14:34N 52°01' E 003°60'1211.9
2015-Jun-25 13:33N 51°54' E 004°16'4 3.8
2015-Jun-25 12:31N 51°54' E 004°22'0 0.0
2015-Jun-25 11:22N 51°54' E 004°22'0 0.0
2015-Jun-25 10:28N 51°54' E 004°22'0 0.0
2015-Jun-25 08:28N 51°54' E 004°22'0 0.0
2015-Jun-25 07:28N 51°54' E 004°22'0 0.0
2015-Jun-25 06:28N 51°54' E 004°22'0 0.0
2015-Jun-25 05:31N 51°54' E 004°22'0 0.0
2015-Jun-25 04:31N 51°54' E 004°22'0 0.0
2015-Jun-25 03:31N 51°54' E 004°22'0 0.0
2015-Jun-25 02:31N 51°54' E 004°22'0 0.0
2015-Jun-25 01:25N 51°54' E 004°22'0 0.0
2015-Jun-25 00:31N 51°54' E 004°22'0 0.0
2015-Jun-24 23:31N 51°54' E 004°22'0 0.0
2015-Jun-24 22:22N 51°54' E 004°22'0 0.0
2015-Jun-24 21:28N 51°54' E 004°22'0 0.0
2015-Jun-24 20:31N 51°54' E 004°22'0 0.0
2015-Jun-24 19:28N 51°54' E 004°22'0 0.0
2015-Jun-24 18:28N 51°54' E 004°22'0 0.0
2015-Jun-24 17:28N 51°54' E 004°22'0 0.0
2015-Jun-24 16:22N 51°54' E 004°22'0 0.0
2015-Jun-24 15:31N 51°54' E 004°22'0 0.0
2015-Jun-24 14:31N 51°54' E 004°22'0 0.0
2015-Jun-24 13:31N 51°54' E 004°22'0 0.0
2015-Jun-24 12:07N 51°54' E 004°22'0 0.0
2015-Jun-24 11:22N 51°54' E 004°22'0 0.0
2015-Jun-24 10:28N 51°54' E 004°22'0 0.0
2015-Jun-24 09:31N 51°54' E 004°22'0 0.0
2015-Jun-24 08:31N 51°54' E 004°22'0 0.0
2015-Jun-24 07:28N 51°54' E 004°22'0 0.0
2015-Jun-24 06:28N 51°54' E 004°22'0 0.0
2015-Jun-24 05:31N 51°54' E 004°22'0 0.0
2015-Jun-24 04:31N 51°54' E 004°22'0 0.0
2015-Jun-24 03:31N 51°54' E 004°22'0 0.0
2015-Jun-24 02:31N 51°54' E 004°22'0 0.0
2015-Jun-24 01:31N 51°54' E 004°22'0 0.0
2015-Jun-24 00:31N 51°54' E 004°22'0 0.0
2015-Jun-23 23:19N 51°54' E 004°22'0 0.0
2015-Jun-23 22:28N 51°54' E 004°22'0 0.0
2015-Jun-23 21:31N 51°54' E 004°22'0 0.0
2015-Jun-23 20:28N 51°54' E 004°22'0 0.0
2015-Jun-23 19:31N 51°54' E 004°22'0 0.0
2015-Jun-23 19:04N 51°54' E 004°22'  

Dump ship's entire track history